createdAt,value
2022-11-21T00:02:10.931Z,132.88
2022-11-21T00:07:12.903Z,133.45
2022-11-21T00:12:16.416Z,140.35
2022-11-21T00:17:18.360Z,128.52
2022-11-21T00:22:20.686Z,131.07
2022-11-21T00:27:22.955Z,131.68
2022-11-21T00:32:25.090Z,130.57
2022-11-21T00:37:27.190Z,130.50
2022-11-21T00:42:29.066Z,148.45
2022-11-21T00:47:30.954Z,124.07
2022-11-21T00:52:32.908Z,122.82
2022-11-21T00:57:34.875Z,122.43
2022-11-21T01:02:36.729Z,130.88
2022-11-21T01:07:40.132Z,128.02
2022-11-21T01:12:42.051Z,128.55
2022-11-21T01:17:43.866Z,124.70
2022-11-21T01:22:54.591Z,119.00
2022-11-21T01:27:56.512Z,120.47
2022-11-21T01:32:58.467Z,130.73
2022-11-21T01:38:00.452Z,113.13
2022-11-21T01:43:09.892Z,141.68
2022-11-21T01:48:11.950Z,126.45
2022-11-21T01:53:14.051Z,124.93
2022-11-21T01:58:16.314Z,166.90
2022-11-21T02:03:24.501Z,161.07
2022-11-21T02:08:27.515Z,151.35
2022-11-21T02:13:29.472Z,140.77
2022-11-21T02:18:31.454Z,150.90
2022-11-21T02:24:00.215Z,137.23
2022-11-21T02:29:02.500Z,125.43
2022-11-21T02:34:04.363Z,134.40
2022-11-21T02:39:10.318Z,129.15
2022-11-21T02:44:28.131Z,140.57
2022-11-21T02:49:43.180Z,143.30
2022-11-21T02:54:45.119Z,141.77
2022-11-21T02:59:47.052Z,148.50
2022-11-21T03:04:48.928Z,159.50
2022-11-21T03:09:50.950Z,153.88
2022-11-21T03:14:52.929Z,163.27
2022-11-21T03:19:55.056Z,146.48
2022-11-21T03:24:57.223Z,165.25
2022-11-21T03:29:59.148Z,148.52
2022-11-21T03:35:01.014Z,156.43
2022-11-21T03:40:03.085Z,141.57
2022-11-21T03:45:05.559Z,147.82
2022-11-21T03:50:08.003Z,142.90
2022-11-21T03:55:09.876Z,149.77
2022-11-21T04:00:12.804Z,132.80
2022-11-21T04:05:14.784Z,149.95
2022-11-21T04:10:16.946Z,140.25
2022-11-21T04:15:18.824Z,144.18
2022-11-21T04:20:20.763Z,152.55
2022-11-21T04:25:22.886Z,148.60
2022-11-21T04:30:25.599Z,132.25
2022-11-21T04:35:27.911Z,129.68
2022-11-21T04:40:29.845Z,130.13
2022-11-21T04:45:32.068Z,154.27
2022-11-21T04:50:34.072Z,137.35
2022-11-21T04:55:35.991Z,125.47
2022-11-21T05:00:38.036Z,130.57
2022-11-21T05:05:39.982Z,162.00
2022-11-21T05:11:01.955Z,168.95
2022-11-21T05:16:04.788Z,169.70
2022-11-21T05:21:06.748Z,160.18
2022-11-21T05:26:08.827Z,155.52
2022-11-21T05:31:16.765Z,159.73
2022-11-21T05:36:25.509Z,155.63
2022-11-21T05:41:27.476Z,142.75
2022-11-21T05:46:29.495Z,160.88
2022-11-21T05:51:31.415Z,151.23
2022-11-21T05:56:33.568Z,157.75
2022-11-21T06:01:53.827Z,141.63
2022-11-21T06:06:55.721Z,164.15
2022-11-21T06:11:57.621Z,169.80
2022-11-21T06:16:59.535Z,166.40
2022-11-21T06:22:01.505Z,196.52
2022-11-21T06:27:03.957Z,152.57
2022-11-21T06:32:06.145Z,158.43
2022-11-21T06:37:08.216Z,163.73
2022-11-21T06:42:10.087Z,153.88
2022-11-21T06:47:11.979Z,167.18
2022-11-21T06:52:14.119Z,151.20
2022-11-21T06:57:16.982Z,127.15
2022-11-21T07:02:18.857Z,138.73
2022-11-21T07:07:27.244Z,190.80
2022-11-21T07:12:51.276Z,137.80
2022-11-21T07:17:53.183Z,144.18
2022-11-21T07:22:55.854Z,129.75
2022-11-21T07:28:02.128Z,143.00
2022-11-21T07:33:13.204Z,135.52
2022-11-21T07:38:18.762Z,131.25
2022-11-21T07:43:21.081Z,132.98
2022-11-21T07:48:23.078Z,147.82
2022-11-21T07:53:25.129Z,152.35
2022-11-21T07:58:27.123Z,136.52
2022-11-21T08:03:29.160Z,137.45
2022-11-21T08:08:31.786Z,140.23
2022-11-21T08:13:35.270Z,134.57
2022-11-21T08:23:39.164Z,138.00
2022-11-21T08:28:41.424Z,148.15
2022-11-21T08:33:43.383Z,139.00
2022-11-21T08:38:45.287Z,133.85
2022-11-21T08:43:47.270Z,130.63
2022-11-21T08:48:55.418Z,126.90
2022-11-21T08:54:04.051Z,138.77
2022-11-21T08:59:06.028Z,138.15
2022-11-21T09:04:08.320Z,128.93
2022-11-21T09:09:10.270Z,140.82
2022-11-21T09:14:30.775Z,118.63
2022-11-21T09:19:32.794Z,97.25
2022-11-21T09:24:34.696Z,118.40
2022-11-21T09:29:36.760Z,95.20
2022-11-21T09:34:38.956Z,91.63
2022-11-21T09:39:41.059Z,88.78
2022-11-21T09:44:48.981Z,89.45
2022-11-21T09:50:00.674Z,77.40
2022-11-21T09:55:06.372Z,80.20
2022-11-21T10:00:22.416Z,82.82
2022-11-21T10:05:36.682Z,103.22
2022-11-21T10:10:54.345Z,85.78
2022-11-21T10:16:03.253Z,134.90
2022-11-21T10:21:18.599Z,94.78
2022-11-21T10:26:46.569Z,114.18
2022-11-21T10:31:49.465Z,77.40
2022-11-21T10:36:57.943Z,80.93
2022-11-21T10:42:38.475Z,77.50
2022-11-21T10:47:40.496Z,69.80
2022-11-21T10:52:49.974Z,66.97
2022-11-21T10:57:54.419Z,72.65
2022-11-21T11:03:16.740Z,80.53
2022-11-21T11:08:18.698Z,66.07
2022-11-21T11:13:50.385Z,76.95
2022-11-21T11:19:08.727Z,87.50
2022-11-21T11:24:10.664Z,83.30
2022-11-21T11:29:24.601Z,84.25
2022-11-21T11:34:37.228Z,87.28
2022-11-21T11:39:39.047Z,89.05
2022-11-21T11:45:32.977Z,96.28
2022-11-21T11:51:03.585Z,109.32
2022-11-21T11:56:13.291Z,98.97
2022-11-21T12:01:48.587Z,100.57
2022-11-21T12:12:41.559Z,116.93
2022-11-21T12:18:20.877Z,88.00
2022-11-21T12:23:31.745Z,85.80
2022-11-21T12:28:39.751Z,92.45
2022-11-21T12:33:51.629Z,87.25
2022-11-21T12:38:56.773Z,90.43
2022-11-21T12:44:24.866Z,83.07
2022-11-21T12:50:16.160Z,77.05
2022-11-21T12:55:40.079Z,74.82
2022-11-21T13:00:57.401Z,73.70
2022-11-21T13:06:01.767Z,78.63
2022-11-21T13:11:39.462Z,78.20
2022-11-21T13:16:48.367Z,96.75
2022-11-21T13:21:54.879Z,93.10
2022-11-21T13:26:56.960Z,99.60
2022-11-21T13:31:58.891Z,110.72
2022-11-21T13:37:01.053Z,113.38
2022-11-21T13:42:24.192Z,97.63
2022-11-21T13:47:26.003Z,97.18
2022-11-21T13:52:55.823Z,94.68
2022-11-21T13:58:22.736Z,111.10
2022-11-21T14:03:33.879Z,115.85
2022-11-21T14:08:36.224Z,120.93
2022-11-21T14:13:38.907Z,120.85
2022-11-21T14:18:44.735Z,113.07
2022-11-21T14:23:47.667Z,122.05
2022-11-21T14:28:49.744Z,126.87
2022-11-21T14:33:58.319Z,123.07
2022-11-21T14:44:29.136Z,121.43
2022-11-21T14:49:31.293Z,123.50
2022-11-21T14:54:40.134Z,127.22
2022-11-21T14:59:43.792Z,132.65
2022-11-21T15:04:48.442Z,113.65
2022-11-21T15:15:22.294Z,175.50
2022-11-21T15:20:26.274Z,158.27
2022-11-21T15:25:44.976Z,127.15
2022-11-21T15:30:46.929Z,116.85
2022-11-21T15:35:54.407Z,124.95
2022-11-21T15:41:00.092Z,118.82
2022-11-21T15:46:23.261Z,120.13
2022-11-21T15:56:56.078Z,108.15
2022-11-21T16:01:58.207Z,111.93
2022-11-21T16:07:00.365Z,104.35
2022-11-21T16:12:02.452Z,108.05
2022-11-21T16:17:04.540Z,104.30
2022-11-21T16:22:06.469Z,108.80
2022-11-21T16:27:08.405Z,106.78
2022-11-21T16:32:10.852Z,102.85
2022-11-21T16:37:13.117Z,103.75
2022-11-21T16:42:15.108Z,106.65
2022-11-21T16:47:17.205Z,102.50
2022-11-21T16:52:19.239Z,101.60
2022-11-21T16:57:21.233Z,103.32
2022-11-21T17:02:23.145Z,119.65
2022-11-21T17:07:25.221Z,105.95
2022-11-21T17:12:27.338Z,104.30
2022-11-21T17:17:29.523Z,119.95
2022-11-21T17:22:31.578Z,119.55
2022-11-21T17:27:33.508Z,103.47
2022-11-21T17:32:35.739Z,135.00
2022-11-21T17:37:37.822Z,227.20
2022-11-21T17:42:41.108Z,141.98
2022-11-21T17:47:44.224Z,181.37
2022-11-21T17:52:47.045Z,185.30
2022-11-21T17:57:49.044Z,137.87
2022-11-21T18:02:51.053Z,150.90
2022-11-21T18:07:53.143Z,139.27
2022-11-21T18:12:55.116Z,158.15
2022-11-21T18:17:57.092Z,110.25
2022-11-21T18:22:58.960Z,128.43
2022-11-21T18:28:00.888Z,115.53
2022-11-21T18:33:03.283Z,132.98
2022-11-21T18:38:05.203Z,127.32
2022-11-21T18:43:07.728Z,131.18
2022-11-21T18:48:09.840Z,120.17
2022-11-21T18:53:12.170Z,110.03
2022-11-21T18:58:14.260Z,114.47
2022-11-21T19:03:16.091Z,125.13
2022-11-21T19:08:18.028Z,124.85
2022-11-21T19:13:20.151Z,150.63
2022-11-21T19:18:22.119Z,126.63
2022-11-21T19:23:23.957Z,114.22
2022-11-21T19:28:27.406Z,114.15
2022-11-21T19:38:32.960Z,92.93
2022-11-21T19:43:34.980Z,100.10
2022-11-21T19:48:37.157Z,83.32
2022-11-21T19:53:40.224Z,90.65
2022-11-21T19:58:43.215Z,95.22
2022-11-21T20:03:47.141Z,88.57
2022-11-21T20:08:51.220Z,91.60
2022-11-21T20:13:53.151Z,95.43
2022-11-21T20:18:57.688Z,94.03
2022-11-21T20:23:59.972Z,112.38
2022-11-21T20:29:02.034Z,84.32
2022-11-21T20:34:11.676Z,91.25
2022-11-21T20:39:18.547Z,106.45
2022-11-21T20:49:43.667Z,110.50
2022-11-21T20:54:45.638Z,84.95
2022-11-21T20:59:47.616Z,82.00
2022-11-21T21:04:49.563Z,77.95
2022-11-21T21:09:51.510Z,81.95
2022-11-21T21:14:53.579Z,76.97
2022-11-21T21:20:01.621Z,80.82
2022-11-21T21:25:10.936Z,81.10
2022-11-21T21:30:13.071Z,74.53
2022-11-21T21:35:15.003Z,81.85
2022-11-21T21:40:17.443Z,86.05
2022-11-21T21:45:20.595Z,83.40
2022-11-21T21:50:22.923Z,82.82
2022-11-21T21:55:24.998Z,75.68
2022-11-21T22:00:26.849Z,82.47
2022-11-21T22:05:28.817Z,71.95
2022-11-21T22:10:30.667Z,67.22
2022-11-21T22:15:32.755Z,75.35
2022-11-21T22:20:34.687Z,68.00
2022-11-21T22:25:36.538Z,82.70
2022-11-21T22:30:39.512Z,72.32
2022-11-21T22:35:41.615Z,75.87
2022-11-21T22:40:44.328Z,67.82
2022-11-21T22:45:46.377Z,68.85
2022-11-21T22:50:48.636Z,78.03
2022-11-21T22:56:01.320Z,67.20
2022-11-21T23:01:04.748Z,71.03
2022-11-21T23:06:10.114Z,71.07
2022-11-21T23:11:14.652Z,68.40
2022-11-21T23:16:17.381Z,72.53
2022-11-21T23:21:19.283Z,64.50
2022-11-21T23:26:21.150Z,69.13
2022-11-21T23:31:23.112Z,70.18
2022-11-21T23:36:25.057Z,72.60
2022-11-21T23:41:26.969Z,69.15
2022-11-21T23:46:29.671Z,67.43
2022-11-21T23:51:31.895Z,69.20
2022-11-21T23:56:34.279Z,71.35
